Terminal Aerodrome Forecast
Issued by NWS

Home | Current Version | Previous Version | Text Only | Print | Product List | Glossary On
Versions: 1 2 3 4 5 6 7 8 9 10 11 12 13 14 15
000
FTUS45 KTFX 200524
TAFHVR

TAF
KHVR 200520Z 2006/2106 31010KT P6SM SCT080 BKN150
      TEMPO 2007/2009 VRB15G20KT -SHRA BKN050
     FM200900 33008KT P6SM SCT050 BKN100
     FM201500 34005KT P6SM SCT040 BKN080
     FM210000 33006KT P6SM -SHRA SCT020 BKN040=

USA.gov is the U.S. government's official web portal to all federal, state and local government web resources and services.